Time;durP1;ratioP1;P1;durP2;ratioP2;P2;SDS_P1;SDS_P2;PMS_P1;PMS_P2;Temp;Humidity;BMP_temperature;BMP_pressure;BME280_temperature;BME280_humidity;BME280_pressure;Samples;Min_cycle;Max_cycle;Signal;HPM_P1;HPM_P2
2021/11/24 00:13:42;;;;;;;17.73;13.60;;;22.90;56.20;;;;;;31624569;28;20389;-49
2021/11/24 00:28:44;;;;;;;16.15;13.07;;;22.80;56.70;;;;;;31626004;28;20050;-49
2021/11/24 00:43:46;;;;;;;14.93;12.05;;;22.70;56.90;;;;;;31623545;28;20047;-41
2021/11/24 00:58:48;;;;;;;16.00;11.77;;;22.60;57.00;;;;;;31622421;28;20120;-43
2021/11/24 01:13:51;;;;;;;14.85;11.10;;;22.60;57.00;;;;;;31621312;28;20127;-42
2021/11/24 01:28:53;;;;;;;11.15;9.63;;;22.50;56.80;;;;;;31622850;28;20048;-41
2021/11/24 01:43:55;;;;;;;13.88;11.13;;;22.40;56.90;;;;;;31624749;28;20095;-46
2021/11/24 01:58:57;;;;;;;12.13;10.23;;;22.40;57.10;;;;;;31622833;28;20086;-41
2021/11/24 02:13:59;;;;;;;12.55;9.60;;;22.30;57.40;;;;;;31616210;28;20045;-48
2021/11/24 02:29:03;;;;;;;10.45;9.35;;;22.40;57.40;;;;;;31639001;28;20048;-47
2021/11/24 02:44:24;;;;;;;12.55;9.05;;;22.20;57.90;;;;;;31639007;28;20120;-44
2021/11/24 02:59:27;;;;;;;16.15;9.15;;;22.10;58.40;;;;;;31640785;28;20106;-44
2021/11/24 03:14:29;;;;;;;10.52;8.60;;;22.20;59.00;;;;;;31640693;28;20094;-44
2021/11/24 03:29:30;;;;;;;12.43;8.40;;;22.00;59.20;;;;;;31638985;28;20099;-40
2021/11/24 03:44:32;;;;;;;8.27;7.03;;;22.00;59.20;;;;;;31619876;28;20076;-38
2021/11/24 03:59:35;;;;;;;8.52;7.65;;;22.00;59.40;;;;;;31630303;28;20053;-47
2021/11/24 04:14:37;;;;;;;9.50;7.53;;;21.90;59.40;;;;;;31627977;28;20036;-44
2021/11/24 04:29:40;;;;;;;16.98;7.30;;;21.90;59.60;;;;;;31632702;28;20100;-46
2021/11/24 04:44:42;;;;;;;8.18;6.97;;;21.90;59.80;;;;;;31625527;28;20127;-45
2021/11/24 04:59:45;;;;;;;6.97;6.28;;;21.90;59.90;;;;;;31604992;28;20060;-51
2021/11/24 05:14:50;;;;;;;9.13;7.10;;;21.90;59.80;;;;;;31622594;28;20064;-44
2021/11/24 05:29:52;;;;;;;12.48;6.75;;;21.90;57.50;;;;;;31604918;28;20044;-41
2021/11/24 05:45:12;;;;;;;9.75;6.88;;;22.30;58.20;;;;;;31618267;28;20075;-47
2021/11/24 06:00:15;;;;;;;20.77;8.18;;;22.60;58.00;;;;;;31637466;28;20053;-44
2021/11/24 06:15:17;;;;;;;49.38;32.15;;;22.80;58.00;;;;;;31639318;28;20063;-49
2021/11/24 06:30:20;;;;;;;41.58;22.10;;;22.10;47.10;;;;;;31632256;28;20082;-43
2021/11/24 06:45:23;;;;;;;41.10;26.42;;;22.20;49.70;;;;;;31637738;28;20079;-45
2021/11/24 07:00:26;;;;;;;11.02;7.32;;;22.40;45.90;;;;;;31636393;28;20077;-40
2021/11/24 07:15:28;;;;;;;12.65;9.55;;;22.50;45.50;;;;;;31641809;28;20040;-40
2021/11/24 07:30:30;;;;;;;5.55;4.35;;;22.80;46.20;;;;;;31638509;28;20048;-39
2021/11/24 07:45:33;;;;;;;11.18;8.40;;;22.90;45.60;;;;;;31637826;28;20064;-37
2021/11/24 08:00:35;;;;;;;8.65;5.45;;;22.90;44.50;;;;;;31634565;28;20048;-36
2021/11/24 08:15:37;;;;;;;6.30;5.05;;;23.00;44.20;;;;;;31632065;28;20039;-36
2021/11/24 08:30:39;;;;;;;4.55;3.45;;;23.10;43.70;;;;;;31630710;28;20049;-39
2021/11/24 08:45:41;;;;;;;6.15;4.00;;;23.00;43.40;;;;;;31629647;28;20071;-36
2021/11/24 09:00:44;;;;;;;2.55;1.75;;;23.10;42.60;;;;;;31508944;28;20108;-45
2021/11/24 09:15:46;;;;;;;1.02;0.90;;;23.80;44.00;;;;;;31541103;28;20044;-43
2021/11/24 09:30:50;;;;;;;2.15;1.50;;;23.50;46.10;;;;;;31563702;28;20095;-47
2021/11/24 09:45:53;;;;;;;1.80;1.13;;;23.20;48.00;;;;;;31509276;28;20060;-42
2021/11/24 10:00:57;;;;;;;1.00;0.90;;;23.00;49.60;;;;;;31490577;28;20061;-43
2021/11/24 10:16:02;;;;;;;0.70;0.70;;;22.90;50.20;;;;;;31588405;28;20044;-41
2021/11/24 10:31:25;;;;;;;0.50;0.50;;;22.90;50.40;;;;;;31612406;28;20045;-40
2021/11/24 10:46:28;;;;;;;2.45;1.65;;;22.90;50.40;;;;;;31521545;28;20045;-48
2021/11/24 11:01:30;;;;;;;0.90;0.73;;;23.80;49.40;;;;;;31514954;28;20109;-41
2021/11/24 11:16:48;;;;;;;0.90;0.70;;;23.60;49.90;;;;;;31515472;28;20124;-36
2021/11/24 11:31:51;;;;;;;3.45;1.73;;;23.40;50.30;;;;;;31484994;28;20056;-46
2021/11/24 11:46:54;;;;;;;3.17;1.60;;;23.20;51.00;;;;;;31131035;28;10000560;-48
2021/11/24 12:02:03;;;;;;;7.18;2.50;;;23.00;50.80;;;;;;31602601;28;20063;-42
2021/11/24 12:17:27;;;;;;;6.17;2.17;;;22.90;50.30;;;;;;31624660;28;20041;-39
2021/11/24 12:32:29;;;;;;;4.32;1.90;;;22.70;50.00;;;;;;31621886;28;20071;-37
2021/11/24 12:47:32;;;;;;;3.83;1.80;;;22.80;50.10;;;;;;31562092;28;20060;-37
2021/11/24 13:02:34;;;;;;;4.07;2.35;;;23.10;49.70;;;;;;31440048;28;20663;-43
2021/11/24 13:17:42;;;;;;;5.68;2.83;;;23.30;49.90;;;;;;31488958;28;20052;-37
2021/11/24 13:32:56;;;;;;;10.85;4.32;;;23.20;50.40;;;;;;31489828;28;20052;-37
2021/11/24 13:48:19;;;;;;;8.45;5.30;;;23.10;50.00;;;;;;31492327;28;20096;-47
2021/11/24 14:03:27;;;;;;;9.07;5.15;;;22.90;50.20;;;;;;31613006;28;20056;-47
2021/11/24 14:18:30;;;;;;;13.67;5.47;;;22.50;49.80;;;;;;31249465;28;9999817;-45
2021/11/24 14:33:32;;;;;;;9.63;5.65;;;22.30;49.30;;;;;;31510403;28;20045;-46
2021/11/24 14:48:34;;;;;;;9.07;5.15;;;22.50;49.40;;;;;;31515342;28;20041;-45
2021/11/24 15:03:36;;;;;;;13.50;5.85;;;22.90;49.60;;;;;;31500286;28;20056;-47
2021/11/24 15:18:38;;;;;;;8.02;4.75;;;22.90;50.30;;;;;;31516636;28;20052;-46
2021/11/24 15:33:40;;;;;;;14.77;6.57;;;23.00;51.00;;;;;;31513048;28;20065;-48
2021/11/24 15:48:44;;;;;;;14.13;6.18;;;22.90;52.00;;;;;;31512592;28;20056;-46
2021/11/24 16:03:46;;;;;;;17.60;6.47;;;22.90;52.10;;;;;;31630388;28;20040;-44
2021/11/24 16:18:50;;;;;;;13.32;6.57;;;22.90;52.90;;;;;;31629131;28;20048;-48
2021/11/24 16:33:52;;;;;;;13.80;6.70;;;22.90;54.60;;;;;;31534364;28;20092;-46
2021/11/24 16:48:54;;;;;;;5.50;2.97;;;22.90;55.40;;;;;;31499250;28;20060;-51
2021/11/24 17:03:56;;;;;;;1.67;0.88;;;23.50;55.10;;;;;;31551684;28;20044;-46
2021/11/24 17:19:02;;;;;;;0.68;0.60;;;23.50;54.20;;;;;;31551213;28;20041;-44
2021/11/24 17:34:10;;;;;;;1.20;0.70;;;23.20;54.80;;;;;;31596822;28;20043;-38
2021/11/24 17:49:13;;;;;;;3.30;1.23;;;23.00;55.50;;;;;;31547345;28;20072;-47
2021/11/24 18:04:19;;;;;;;11.68;4.95;;;23.40;56.20;;;;;;31522338;28;20040;-42
2021/11/24 18:19:24;;;;;;;9.07;4.53;;;23.20;56.90;;;;;;31523269;28;20097;-42
2021/11/24 18:34:27;;;;;;;25.85;4.97;;;23.10;56.80;;;;;;31519179;28;20052;-48
2021/11/24 18:49:29;;;;;;;10.25;3.53;;;23.00;56.90;;;;;;31602745;28;20057;-39
2021/11/24 19:04:31;;;;;;;12.60;4.38;;;22.90;56.40;;;;;;31611152;28;20073;-41
2021/11/24 19:19:33;;;;;;;6.38;4.13;;;22.90;57.80;;;;;;31257715;28;10000272;-51
2021/11/24 19:34:35;;;;;;;12.93;4.55;;;22.90;58.40;;;;;;31599094;28;20036;-40
2021/11/24 19:49:39;;;;;;;9.35;3.53;;;22.80;59.00;;;;;;31544867;28;20045;-47
2021/11/24 20:04:42;;;;;;;14.25;10.48;;;22.80;57.90;;;;;;31612736;28;20040;-55
2021/11/24 20:19:46;;;;;;;3.95;2.92;;;22.70;57.00;;;;;;31581698;28;20060;-37
2021/11/24 20:34:48;;;;;;;0.93;0.85;;;22.70;57.10;;;;;;31606735;28;20127;-40
2021/11/24 20:49:50;;;;;;;0.30;0.30;;;22.80;57.10;;;;;;31526264;28;20065;-46
2021/11/24 21:04:52;;;;;;;0.20;0.20;;;22.90;57.10;;;;;;31514312;28;20041;-41
2021/11/24 21:19:54;;;;;;;0.10;0.10;;;22.90;57.00;;;;;;31183972;28;9999750;-41
2021/11/24 21:35:19;;;;;;;0.10;0.10;;;22.90;56.90;;;;;;31517934;28;20048;-47
2021/11/24 21:50:22;;;;;;;0.40;0.30;;;23.00;56.80;;;;;;31568948;28;20053;-43
2021/11/24 22:05:29;;;;;;;8.15;4.72;;;23.00;56.80;;;;;;31513175;28;20048;-44
2021/11/24 22:20:31;;;;;;;1.88;1.67;;;22.80;56.40;;;;;;31490554;28;20066;-39
2021/11/24 22:35:33;;;;;;;0.40;0.40;;;22.90;56.60;;;;;;31498169;28;20052;-38
2021/11/24 22:50:36;;;;;;;0.20;0.20;;;22.90;56.70;;;;;;31572548;28;20110;-39
2021/11/24 23:05:39;;;;;;;0.77;0.43;;;22.90;56.80;;;;;;31560614;28;20044;-39
2021/11/24 23:20:41;;;;;;;0.40;0.40;;;22.80;56.50;;;;;;31525590;28;20056;-42
2021/11/24 23:35:43;;;;;;;19.10;12.68;;;22.80;56.50;;;;;;31632412;28;20060;-38
2021/11/24 23:50:46;;;;;;;7.15;6.03;;;22.70;56.30;;;;;;31624916;28;20075;-39
